createdAt,value
2024-04-03T00:00:00.459Z,868.00
2024-04-03T00:01:00.558Z,865.00
2024-04-03T00:02:00.684Z,862.00
2024-04-03T00:03:00.810Z,860.00
2024-04-03T00:04:00.895Z,858.00
2024-04-03T00:05:00.997Z,860.00
2024-04-03T00:06:01.104Z,860.00
2024-04-03T00:07:01.231Z,860.00
2024-04-03T00:08:01.334Z,858.00
2024-04-03T00:09:01.426Z,860.00
2024-04-03T00:10:01.532Z,859.00
2024-04-03T00:11:01.634Z,860.00
2024-04-03T00:12:01.784Z,860.00
2024-04-03T00:13:01.868Z,860.00
2024-04-03T00:14:01.951Z,857.00
2024-04-03T00:15:02.076Z,857.00
2024-04-03T00:16:02.163Z,855.00
2024-04-03T00:17:02.255Z,857.00
2024-04-03T00:18:02.353Z,856.00
2024-04-03T00:19:02.458Z,852.00
2024-04-03T00:20:02.578Z,854.00
2024-04-03T00:21:02.677Z,855.00
2024-04-03T00:22:02.783Z,854.00
2024-04-03T00:23:02.896Z,851.00
2024-04-03T00:24:02.978Z,849.00
2024-04-03T00:25:03.095Z,848.00
2024-04-03T00:26:03.181Z,851.00
2024-04-03T00:27:03.295Z,850.00
2024-04-03T00:28:03.401Z,850.00
2024-04-03T00:29:03.483Z,850.00
2024-04-03T00:30:03.608Z,849.00
2024-04-03T00:31:03.699Z,848.00
2024-04-03T00:32:03.791Z,847.00
2024-04-03T00:33:03.887Z,844.00
2024-04-03T00:34:03.991Z,841.00
2024-04-03T00:35:04.087Z,837.00
2024-04-03T00:36:04.179Z,833.00
2024-04-03T00:37:04.275Z,833.00
2024-04-03T00:38:04.365Z,834.00
2024-04-03T00:39:04.467Z,835.00
2024-04-03T00:40:04.567Z,832.00
2024-04-03T00:41:04.674Z,829.00
2024-04-03T00:42:04.813Z,828.00
2024-04-03T00:43:04.875Z,829.00
2024-04-03T00:44:04.985Z,827.00
2024-04-03T00:45:05.075Z,824.00
2024-04-03T00:46:05.164Z,826.00
2024-04-03T00:47:05.266Z,828.00
2024-04-03T00:48:05.375Z,828.00
2024-04-03T00:49:05.465Z,827.00
2024-04-03T00:50:05.575Z,828.00
2024-04-03T00:51:05.675Z,828.00
2024-04-03T00:52:05.791Z,826.00
2024-04-03T00:53:05.875Z,824.00
2024-04-03T00:54:05.974Z,824.00
2024-04-03T00:55:06.050Z,825.00
2024-04-03T00:56:06.152Z,824.00
2024-04-03T00:57:06.234Z,825.00
2024-04-03T00:58:06.361Z,825.00
2024-04-03T00:59:06.424Z,826.00
2024-04-03T01:00:06.507Z,826.00
2024-04-03T01:01:06.605Z,826.00
2024-04-03T01:02:06.680Z,826.00
2024-04-03T01:03:06.795Z,826.00
2024-04-03T01:04:06.892Z,826.00
2024-04-03T01:05:07.000Z,825.00
2024-04-03T01:06:07.082Z,825.00
2024-04-03T01:07:07.207Z,823.00
2024-04-03T01:08:07.276Z,824.00
2024-04-03T01:09:07.370Z,826.00
2024-04-03T01:10:07.472Z,824.00
2024-04-03T01:11:09.223Z,823.00
2024-04-03T01:12:07.753Z,824.00
2024-04-03T01:13:07.739Z,820.00
2024-04-03T01:14:07.748Z,819.00
2024-04-03T01:15:07.776Z,819.00
2024-04-03T01:16:07.805Z,815.00
2024-04-03T01:17:07.856Z,813.00
2024-04-03T01:18:07.874Z,817.00
2024-04-03T01:19:07.912Z,817.00
2024-04-03T01:20:07.923Z,819.00
2024-04-03T01:21:07.969Z,818.00
2024-04-03T01:22:08.066Z,818.00
2024-04-03T01:23:08.188Z,816.00
2024-04-03T01:24:08.279Z,818.00
2024-04-03T01:25:08.382Z,817.00
2024-04-03T01:26:08.474Z,816.00
2024-04-03T01:27:08.586Z,812.00
2024-04-03T01:28:08.690Z,810.00
2024-04-03T01:29:08.802Z,813.00
2024-04-03T01:30:08.931Z,812.00
2024-04-03T01:31:09.041Z,812.00
2024-04-03T01:32:09.132Z,810.00
2024-04-03T01:33:09.262Z,811.00
2024-04-03T01:34:09.384Z,810.00
2024-04-03T01:35:09.482Z,809.00
2024-04-03T01:36:09.591Z,804.00
2024-04-03T01:37:09.696Z,806.00
2024-04-03T01:38:09.879Z,806.00
2024-04-03T01:39:09.890Z,804.00
2024-04-03T01:40:09.990Z,803.00
2024-04-03T01:41:10.103Z,803.00
2024-04-03T01:42:10.192Z,804.00
2024-04-03T01:43:10.305Z,805.00
2024-04-03T01:44:10.405Z,804.00
2024-04-03T01:45:10.494Z,803.00
2024-04-03T01:46:10.587Z,805.00
2024-04-03T01:47:10.726Z,805.00
2024-04-03T01:48:10.806Z,805.00
2024-04-03T01:49:10.912Z,803.00
2024-04-03T01:50:11.019Z,801.00
2024-04-03T01:51:11.133Z,799.00
2024-04-03T01:52:11.266Z,802.00
2024-04-03T01:53:11.344Z,801.00
2024-04-03T01:54:11.454Z,801.00
2024-04-03T01:55:11.576Z,801.00
2024-04-03T01:56:11.677Z,803.00
2024-04-03T01:57:11.784Z,800.00
2024-04-03T01:58:11.899Z,798.00
2024-04-03T01:59:12.016Z,796.00
2024-04-03T02:00:12.115Z,791.00
2024-04-03T02:01:12.220Z,793.00
2024-04-03T02:02:12.328Z,796.00
2024-04-03T02:03:12.431Z,797.00
2024-04-03T02:04:12.543Z,796.00
2024-04-03T02:05:12.634Z,795.00
2024-04-03T02:06:12.735Z,793.00
2024-04-03T02:07:12.847Z,792.00
2024-04-03T02:08:12.954Z,792.00
2024-04-03T02:09:13.064Z,795.00
2024-04-03T02:10:13.138Z,795.00
2024-04-03T02:11:13.252Z,796.00
2024-04-03T02:12:13.352Z,797.00
2024-04-03T02:13:13.454Z,793.00
2024-04-03T02:14:13.545Z,788.00
2024-04-03T02:15:13.649Z,784.00
2024-04-03T02:16:13.759Z,784.00
2024-04-03T02:17:13.868Z,783.00
2024-04-03T02:18:13.971Z,782.00
2024-04-03T02:19:14.074Z,785.00
2024-04-03T02:20:14.191Z,783.00
2024-04-03T02:21:14.276Z,782.00
2024-04-03T02:22:14.382Z,783.00
2024-04-03T02:23:16.728Z,780.00
2024-04-03T02:24:20.495Z,778.00
2024-04-03T02:25:15.512Z,777.00
2024-04-03T02:26:14.507Z,777.00
2024-04-03T02:27:14.522Z,776.00
2024-04-03T02:28:14.517Z,776.00
2024-04-03T02:29:14.522Z,777.00
2024-04-03T02:30:14.533Z,778.00
2024-04-03T02:31:14.526Z,777.00
2024-04-03T02:32:14.519Z,778.00
2024-04-03T02:33:14.534Z,780.00
2024-04-03T02:34:14.563Z,781.00
2024-04-03T02:35:14.575Z,782.00
2024-04-03T02:36:14.686Z,782.00
2024-04-03T02:37:14.793Z,783.00
2024-04-03T02:38:14.902Z,782.00
2024-04-03T02:39:15.010Z,779.00
2024-04-03T02:40:15.123Z,777.00
2024-04-03T02:41:15.235Z,779.00
2024-04-03T02:42:15.362Z,776.00
2024-04-03T02:43:15.457Z,778.00
2024-04-03T02:44:15.581Z,776.00
2024-04-03T02:45:15.694Z,774.00
2024-04-03T02:46:15.799Z,775.00
2024-04-03T02:47:15.914Z,773.00
2024-04-03T02:48:16.023Z,769.00
2024-04-03T02:49:16.134Z,770.00
2024-04-03T02:50:16.273Z,771.00
2024-04-03T02:51:16.349Z,770.00
2024-04-03T02:52:16.456Z,769.00
2024-04-03T02:53:16.575Z,769.00
2024-04-03T02:54:16.672Z,767.00
2024-04-03T02:55:16.787Z,767.00
2024-04-03T02:56:16.910Z,768.00
2024-04-03T02:57:17.024Z,768.00
2024-04-03T02:58:17.115Z,768.00
2024-04-03T02:59:17.223Z,766.00
2024-04-03T03:00:17.336Z,767.00
2024-04-03T03:01:17.440Z,766.00
2024-04-03T03:02:17.577Z,766.00
2024-04-03T03:03:17.666Z,767.00
2024-04-03T03:04:17.776Z,768.00
2024-04-03T03:05:17.883Z,763.00
2024-04-03T03:06:18.008Z,761.00
2024-04-03T03:07:18.133Z,761.00
2024-04-03T03:08:18.221Z,765.00
2024-04-03T03:09:18.345Z,767.00
2024-04-03T03:10:18.465Z,764.00
2024-04-03T03:11:18.574Z,763.00
2024-04-03T03:12:18.670Z,765.00
2024-04-03T03:13:18.791Z,765.00
2024-04-03T03:14:18.906Z,765.00
2024-04-03T03:15:19.041Z,765.00
2024-04-03T03:16:19.146Z,765.00
2024-04-03T03:17:19.290Z,768.00
2024-04-03T03:18:27.986Z,764.00
2024-04-03T03:19:19.539Z,763.00
2024-04-03T03:20:19.583Z,768.00
2024-04-03T03:21:19.593Z,767.00
2024-04-03T03:22:19.641Z,766.00
2024-04-03T03:23:19.641Z,765.00
2024-04-03T03:24:19.694Z,765.00
2024-04-03T03:25:19.728Z,762.00
2024-04-03T03:26:19.762Z,764.00
2024-04-03T03:27:19.802Z,762.00
2024-04-03T03:28:19.848Z,759.00
2024-04-03T03:29:19.964Z,759.00
2024-04-03T03:30:20.072Z,759.00
2024-04-03T03:31:20.206Z,758.00
2024-04-03T03:32:20.315Z,754.00
2024-04-03T03:33:20.425Z,755.00
2024-04-03T03:34:20.534Z,755.00
2024-04-03T03:35:20.656Z,756.00
2024-04-03T03:36:20.752Z,756.00
2024-04-03T03:37:20.869Z,756.00
2024-04-03T03:38:21.004Z,755.00
2024-04-03T03:39:21.115Z,758.00
2024-04-03T03:40:21.195Z,758.00
2024-04-03T03:41:21.301Z,759.00
2024-04-03T03:42:21.408Z,759.00
2024-04-03T03:43:21.517Z,757.00
2024-04-03T03:44:21.631Z,754.00
2024-04-03T03:45:21.737Z,753.00
2024-04-03T03:46:21.844Z,751.00
2024-04-03T03:47:22.021Z,750.00
2024-04-03T03:48:22.079Z,751.00
2024-04-03T03:49:22.186Z,750.00
2024-04-03T03:50:22.277Z,748.00
2024-04-03T03:51:22.396Z,749.00
2024-04-03T03:52:22.508Z,748.00
2024-04-03T03:53:22.590Z,747.00
2024-04-03T03:54:22.720Z,743.00
2024-04-03T03:55:22.825Z,742.00
2024-04-03T03:56:29.123Z,744.00
2024-04-03T03:57:23.947Z,742.00
2024-04-03T03:58:22.938Z,739.00
2024-04-03T03:59:22.932Z,734.00
2024-04-03T04:00:22.934Z,736.00
2024-04-03T04:01:22.939Z,731.00
2024-04-03T04:02:22.971Z,733.00
2024-04-03T04:03:22.957Z,732.00
2024-04-03T04:04:22.958Z,731.00
2024-04-03T04:05:22.969Z,733.00
2024-04-03T04:06:23.005Z,733.00
2024-04-03T04:07:23.114Z,733.00
2024-04-03T04:08:23.223Z,735.00
2024-04-03T04:09:23.326Z,735.00
2024-04-03T04:10:23.441Z,735.00
2024-04-03T04:11:23.552Z,738.00
2024-04-03T04:12:23.648Z,737.00
2024-04-03T04:13:23.761Z,736.00
2024-04-03T04:14:23.850Z,734.00
2024-04-03T04:15:23.962Z,730.00
2024-04-03T04:16:24.038Z,730.00
2024-04-03T04:17:24.174Z,731.00
2024-04-03T04:18:24.251Z,733.00
2024-04-03T04:19:24.351Z,734.00
2024-04-03T04:20:24.458Z,734.00
2024-04-03T04:21:24.542Z,734.00
2024-04-03T04:22:24.653Z,735.00
2024-04-03T04:23:24.758Z,734.00
2024-04-03T04:24:24.839Z,736.00
2024-04-03T04:25:24.983Z,736.00
2024-04-03T04:26:25.048Z,734.00
2024-04-03T04:27:25.166Z,732.00
2024-04-03T04:28:25.285Z,731.00
2024-04-03T04:29:25.410Z,730.00
2024-04-03T04:30:25.483Z,730.00
2024-04-03T04:31:25.565Z,729.00
2024-04-03T04:32:25.679Z,731.00
2024-04-03T04:33:25.808Z,731.00
2024-04-03T04:34:25.882Z,728.00
2024-04-03T04:35:25.996Z,726.00
2024-04-03T04:36:26.128Z,727.00
2024-04-03T04:37:26.220Z,727.00
2024-04-03T04:38:26.337Z,725.00
2024-04-03T04:39:26.440Z,726.00
2024-04-03T04:40:26.545Z,728.00
2024-04-03T04:41:26.622Z,727.00
2024-04-03T04:42:26.720Z,728.00
2024-04-03T04:43:26.847Z,727.00
2024-04-03T04:44:26.909Z,722.00
2024-04-03T04:45:27.058Z,720.00
2024-04-03T04:46:27.096Z,722.00
2024-04-03T04:47:27.238Z,725.00
2024-04-03T04:48:27.310Z,724.00
2024-04-03T04:49:27.645Z,722.00
2024-04-03T04:50:27.488Z,721.00
2024-04-03T04:51:34.838Z,713.00
2024-04-03T04:52:34.816Z,709.00
2024-04-03T04:53:34.865Z,715.00
2024-04-03T04:54:34.863Z,716.00
2024-04-03T04:55:34.846Z,720.00
2024-04-03T04:56:34.915Z,724.00
2024-04-03T04:57:34.844Z,727.00
2024-04-03T04:58:34.934Z,724.00
2024-04-03T04:59:35.028Z,723.00
2024-04-03T05:00:35.120Z,724.00
2024-04-03T05:01:35.232Z,729.00
2024-04-03T05:02:35.395Z,729.00
2024-04-03T05:03:35.435Z,725.00
2024-04-03T05:04:35.542Z,724.00
2024-04-03T05:05:35.627Z,725.00
2024-04-03T05:06:35.741Z,722.00
2024-04-03T05:07:35.835Z,719.00
2024-04-03T05:08:35.976Z,714.00
2024-04-03T05:09:36.055Z,711.00
2024-04-03T05:10:36.163Z,710.00
2024-04-03T05:11:36.267Z,711.00
2024-04-03T05:12:36.379Z,714.00
2024-04-03T05:13:36.490Z,712.00
2024-04-03T05:14:36.625Z,712.00
2024-04-03T05:15:36.692Z,710.00
2024-04-03T05:16:36.820Z,709.00
2024-04-03T05:17:36.902Z,708.00
2024-04-03T05:18:37.015Z,706.00
2024-04-03T05:19:37.128Z,703.00
2024-04-03T05:20:37.235Z,700.00
2024-04-03T05:21:37.341Z,700.00
2024-04-03T05:22:37.475Z,702.00
2024-04-03T05:23:37.583Z,702.00
2024-04-03T05:24:37.670Z,699.00
2024-04-03T05:25:37.779Z,699.00
2024-04-03T05:26:37.858Z,699.00
2024-04-03T05:27:37.956Z,705.00
2024-04-03T05:28:38.078Z,708.00
2024-04-03T05:29:38.168Z,708.00
2024-04-03T05:30:38.297Z,708.00
2024-04-03T05:31:38.378Z,714.00
2024-04-03T05:32:38.525Z,719.00
2024-04-03T05:33:38.568Z,720.00
2024-04-03T05:34:38.687Z,713.00
2024-04-03T05:35:38.790Z,709.00
2024-04-03T05:36:38.902Z,707.00
2024-04-03T05:37:39.008Z,720.00
2024-04-03T05:38:39.082Z,732.00
2024-04-03T05:39:39.162Z,738.00
2024-04-03T05:40:39.348Z,746.00
2024-04-03T05:41:39.275Z,760.00
2024-04-03T05:42:39.313Z,772.00
2024-04-03T05:43:39.332Z,784.00
2024-04-03T05:44:39.391Z,833.00
2024-04-03T05:45:39.415Z,844.00
2024-04-03T05:46:39.486Z,868.00
2024-04-03T05:47:39.519Z,893.00
2024-04-03T05:48:39.623Z,774.00
2024-04-03T05:49:39.602Z,735.00
2024-04-03T05:50:39.643Z,718.00
2024-04-03T05:51:39.689Z,699.00
2024-04-03T05:52:39.720Z,712.00
2024-04-03T05:53:39.735Z,739.00
2024-04-03T05:54:39.775Z,799.00
2024-04-03T05:55:39.790Z,813.00
2024-04-03T05:56:39.860Z,798.00
2024-04-03T05:57:39.945Z,822.00
2024-04-03T05:58:40.017Z,820.00
2024-04-03T05:59:40.050Z,813.00
2024-04-03T06:00:40.118Z,852.00
2024-04-03T06:01:40.190Z,932.00
2024-04-03T06:02:40.251Z,956.00
2024-04-03T06:03:40.354Z,974.00
2024-04-03T06:04:40.401Z,994.00
2024-04-03T06:05:40.496Z,1018.00
2024-04-03T06:06:40.655Z,1034.00
2024-04-03T06:07:40.745Z,1049.00
2024-04-03T06:08:40.845Z,1064.00
2024-04-03T06:09:41.983Z,1081.00
2024-04-03T06:10:41.068Z,1116.00
2024-04-03T06:11:41.164Z,1147.00
2024-04-03T06:12:41.257Z,1164.00
2024-04-03T06:13:41.345Z,1176.00
2024-04-03T06:14:41.479Z,1196.00
2024-04-03T06:15:41.520Z,1242.00
2024-04-03T06:16:41.598Z,1269.00
2024-04-03T06:17:41.698Z,1286.00
2024-04-03T06:18:41.746Z,1308.00
2024-04-03T06:19:41.832Z,1337.00
2024-04-03T06:20:41.899Z,1360.00
2024-04-03T06:21:41.999Z,1395.00
2024-04-03T06:22:42.092Z,1437.00
2024-04-03T06:23:42.163Z,1448.00
2024-04-03T06:24:42.261Z,1464.00
2024-04-03T06:25:42.360Z,1478.00
2024-04-03T06:26:42.427Z,1499.00
2024-04-03T06:27:42.491Z,1547.00
2024-04-03T06:28:42.597Z,1568.00
2024-04-03T06:29:42.646Z,1581.00
2024-04-03T06:30:42.717Z,1600.00
2024-04-03T06:31:42.788Z,1618.00
2024-04-03T06:32:42.920Z,1668.00
2024-04-03T06:33:42.918Z,1676.00
2024-04-03T06:34:42.994Z,1688.00
2024-04-03T06:35:43.055Z,1715.00
2024-04-03T06:36:43.193Z,1744.00
2024-04-03T06:37:43.214Z,1766.00
2024-04-03T06:38:43.291Z,1791.00
2024-04-03T06:39:43.405Z,1819.00
2024-04-03T06:40:43.479Z,1842.00
2024-04-03T06:41:43.592Z,1861.00
2024-04-03T06:42:43.717Z,1884.00
2024-04-03T06:43:43.753Z,1900.00
2024-04-03T06:44:43.835Z,1916.00
2024-04-03T06:45:43.918Z,1933.00
2024-04-03T06:46:44.012Z,1952.00
2024-04-03T06:47:44.104Z,1969.00
2024-04-03T06:48:44.176Z,1993.00
2024-04-03T06:49:44.279Z,2013.00
2024-04-03T06:50:44.355Z,2036.00
2024-04-03T06:51:44.472Z,2058.00
2024-04-03T06:52:44.561Z,2073.00
2024-04-03T06:53:44.627Z,2094.00
2024-04-03T06:54:44.769Z,2123.00
2024-04-03T06:55:44.814Z,2142.00
2024-04-03T06:56:44.895Z,2157.00
2024-04-03T06:57:44.980Z,2171.00
2024-04-03T06:58:45.983Z,1929.00
2024-04-03T06:59:45.181Z,1124.00
2024-04-03T07:00:45.216Z,1074.00
2024-04-03T07:01:45.287Z,952.00
2024-04-03T07:02:45.392Z,862.00
2024-04-03T07:03:45.462Z,714.00
2024-04-03T07:04:45.550Z,692.00
2024-04-03T07:05:45.643Z,675.00
2024-04-03T07:06:45.722Z,674.00
2024-04-03T07:07:45.833Z,719.00
2024-04-03T07:08:45.924Z,875.00
2024-04-03T07:09:46.018Z,1054.00
2024-04-03T07:10:46.149Z,1225.00
2024-04-03T07:11:46.243Z,1366.00
2024-04-03T07:12:46.321Z,1413.00
2024-04-03T07:13:46.396Z,1398.00
2024-04-03T07:14:46.465Z,1317.00
2024-04-03T07:15:46.548Z,1209.00
2024-04-03T07:16:46.614Z,1191.00
2024-04-03T07:17:46.728Z,1190.00
2024-04-03T07:18:47.472Z,1180.00
2024-04-03T07:19:46.904Z,1184.00
2024-04-03T07:20:47.010Z,1189.00
2024-04-03T07:21:47.084Z,1201.00
2024-04-03T07:22:47.165Z,1206.00
2024-04-03T07:23:47.271Z,1209.00
2024-04-03T07:24:47.400Z,1217.00
2024-04-03T07:25:47.440Z,1227.00
2024-04-03T07:26:47.536Z,1237.00
2024-04-03T07:27:50.281Z,1251.00
2024-04-03T07:28:47.978Z,1267.00
2024-04-03T07:29:47.579Z,1278.00
2024-04-03T07:30:47.625Z,1291.00
2024-04-03T07:31:47.579Z,1305.00
2024-04-03T07:32:47.573Z,1320.00
2024-04-03T07:33:47.576Z,1337.00
2024-04-03T07:34:47.581Z,1350.00
2024-04-03T07:35:47.589Z,1369.00
2024-04-03T07:36:47.589Z,1386.00
2024-04-03T07:37:47.575Z,1399.00
2024-04-03T07:38:47.578Z,1409.00
2024-04-03T07:39:47.597Z,1424.00
2024-04-03T07:40:47.599Z,1436.00
2024-04-03T07:41:47.598Z,1450.00
2024-04-03T07:42:47.609Z,1468.00
2024-04-03T07:43:47.587Z,1480.00
2024-04-03T07:44:49.777Z,1486.00
2024-04-03T07:45:47.589Z,1497.00
2024-04-03T07:46:47.633Z,1515.00
2024-04-03T07:47:47.604Z,1525.00
2024-04-03T07:48:47.612Z,1529.00
2024-04-03T07:49:47.621Z,1529.00
2024-04-03T07:50:47.625Z,1533.00
2024-04-03T07:51:47.605Z,1538.00
2024-04-03T07:52:47.617Z,1535.00
2024-04-03T07:53:47.615Z,1532.00
2024-04-03T07:54:47.625Z,1532.00
2024-04-03T07:55:47.628Z,1532.00
2024-04-03T07:56:47.634Z,1531.00
2024-04-03T07:57:47.612Z,1528.00
2024-04-03T07:58:47.695Z,1529.00
2024-04-03T07:59:47.620Z,1534.00
2024-04-03T08:00:47.638Z,1533.00
2024-04-03T08:01:47.619Z,1530.00
2024-04-03T08:02:47.617Z,1521.00
2024-04-03T08:03:47.702Z,1516.00
2024-04-03T08:04:47.624Z,1513.00
2024-04-03T08:05:47.639Z,1514.00
2024-04-03T08:06:47.648Z,1509.00
2024-04-03T08:07:47.624Z,1504.00
2024-04-03T08:08:47.683Z,1501.00
2024-04-03T08:09:47.683Z,1499.00
2024-04-03T08:10:47.763Z,1497.00
2024-04-03T08:11:47.707Z,1494.00
2024-04-03T08:12:47.713Z,1489.00
2024-04-03T08:13:47.691Z,1484.00
2024-04-03T08:14:47.696Z,1481.00
2024-04-03T08:15:48.030Z,1473.00
2024-04-03T08:16:47.704Z,1470.00
2024-04-03T08:17:47.706Z,1466.00
2024-04-03T08:18:47.725Z,1457.00
2024-04-03T08:19:47.717Z,1455.00
2024-04-03T08:20:47.719Z,1456.00
2024-04-03T08:21:47.715Z,1454.00
2024-04-03T08:22:47.723Z,1450.00
2024-04-03T08:23:47.723Z,1448.00
2024-04-03T08:24:47.713Z,1446.00
2024-04-03T08:25:47.722Z,1442.00
2024-04-03T08:26:47.704Z,1441.00
2024-04-03T08:27:47.780Z,1440.00
2024-04-03T08:28:47.846Z,1437.00
2024-04-03T08:29:47.929Z,1432.00
2024-04-03T08:30:47.992Z,1430.00
2024-04-03T08:31:48.078Z,1421.00
2024-04-03T08:32:48.146Z,1416.00
2024-04-03T08:34:48.301Z,1407.00
2024-04-03T08:35:48.378Z,1406.00
2024-04-03T08:36:48.473Z,1405.00
2024-04-03T08:37:57.091Z,1402.00
2024-04-03T08:38:49.527Z,1394.00
2024-04-03T08:39:48.538Z,1394.00
2024-04-03T08:40:48.516Z,1389.00
2024-04-03T08:41:48.526Z,1380.00
2024-04-03T08:42:48.529Z,1377.00
2024-04-03T08:43:48.565Z,1377.00
2024-04-03T08:44:48.535Z,1373.00
2024-04-03T08:45:48.570Z,1374.00
2024-04-03T08:46:48.586Z,1377.00
2024-04-03T08:47:48.569Z,1385.00
2024-04-03T08:48:49.015Z,1346.00
2024-04-03T08:49:48.581Z,1370.00
2024-04-03T08:50:48.579Z,1389.00
2024-04-03T08:51:48.590Z,1405.00
2024-04-03T08:52:48.599Z,1422.00
2024-04-03T08:53:48.602Z,1442.00
2024-04-03T08:54:48.610Z,1488.00
2024-04-03T08:55:48.591Z,1517.00
2024-04-03T08:56:48.588Z,1550.00
2024-04-03T08:57:48.587Z,1553.00
2024-04-03T08:58:48.575Z,1568.00
2024-04-03T08:59:48.590Z,1579.00
2024-04-03T09:00:48.635Z,1591.00
2024-04-03T09:01:48.600Z,1692.00
2024-04-03T09:02:48.595Z,1687.00
2024-04-03T09:03:48.658Z,1683.00
2024-04-03T09:04:48.683Z,1678.00
2024-04-03T09:05:48.784Z,1678.00
2024-04-03T09:06:48.860Z,1678.00
2024-04-03T09:07:55.866Z,1686.00
2024-04-03T09:08:49.958Z,1631.00
2024-04-03T09:09:48.967Z,1643.00
2024-04-03T09:10:52.443Z,1640.00
2024-04-03T09:11:48.970Z,1520.00
2024-04-03T09:12:48.961Z,1439.00
2024-04-03T09:13:48.995Z,1319.00
2024-04-03T09:14:48.988Z,1108.00
2024-04-03T09:15:48.993Z,1130.00
2024-04-03T09:16:56.090Z,964.00
2024-04-03T09:17:50.005Z,909.00
2024-04-03T09:18:48.984Z,855.00
2024-04-03T09:19:48.983Z,910.00
2024-04-03T09:20:50.669Z,809.00
2024-04-03T09:21:48.997Z,794.00
2024-04-03T09:22:48.981Z,769.00
2024-04-03T09:23:48.981Z,754.00
2024-04-03T09:24:48.980Z,730.00
2024-04-03T09:25:56.332Z,659.00
2024-04-03T09:26:56.309Z,667.00
2024-04-03T09:27:57.281Z,668.00
2024-04-03T09:28:56.281Z,689.00
2024-04-03T09:29:56.310Z,754.00
2024-04-03T09:30:56.301Z,727.00
2024-04-03T09:31:56.278Z,716.00
2024-04-03T09:32:56.283Z,867.00
2024-04-03T09:33:56.285Z,783.00
2024-04-03T09:34:56.300Z,662.00
2024-04-03T09:35:56.303Z,637.00
2024-04-03T09:36:56.373Z,623.00
2024-04-03T09:37:56.459Z,619.00
2024-04-03T09:38:56.534Z,617.00
2024-04-03T09:39:56.598Z,661.00
2024-04-03T09:40:56.707Z,702.00
2024-04-03T09:41:56.768Z,889.00
2024-04-03T09:42:56.832Z,938.00
2024-04-03T09:43:56.899Z,928.00
2024-04-03T09:44:56.971Z,942.00
2024-04-03T09:45:57.062Z,950.00
2024-04-03T09:46:57.168Z,951.00
2024-04-03T09:47:57.225Z,953.00
2024-04-03T09:48:57.369Z,960.00
2024-04-03T09:49:57.443Z,842.00
2024-04-03T09:50:57.534Z,810.00
2024-04-03T09:51:57.608Z,783.00
2024-04-03T09:52:57.673Z,777.00
2024-04-03T09:53:57.763Z,822.00
2024-04-03T09:54:57.820Z,766.00
2024-04-03T09:55:57.908Z,731.00
2024-04-03T09:56:57.979Z,720.00
2024-04-03T09:57:58.195Z,710.00
2024-04-03T09:58:58.157Z,693.00
2024-04-03T09:59:58.207Z,683.00
2024-04-03T10:00:58.275Z,680.00
2024-04-03T10:01:58.353Z,671.00
2024-04-03T10:02:58.456Z,669.00
2024-04-03T10:03:58.528Z,661.00
2024-04-03T10:04:58.603Z,655.00
2024-04-03T10:05:58.702Z,646.00
2024-04-03T10:06:58.768Z,629.00
2024-04-03T10:07:58.810Z,616.00
2024-04-03T10:08:58.924Z,608.00
2024-04-03T10:09:59.002Z,604.00
2024-04-03T10:10:59.064Z,597.00
2024-04-03T10:11:59.132Z,592.00
2024-04-03T10:12:59.223Z,588.00
2024-04-03T10:13:59.762Z,583.00
2024-04-03T10:14:59.333Z,580.00
2024-04-03T10:15:59.336Z,575.00
2024-04-03T10:16:59.384Z,572.00
2024-04-03T10:17:59.385Z,572.00
2024-04-03T10:18:59.424Z,571.00
2024-04-03T10:19:59.436Z,565.00
2024-04-03T10:20:59.473Z,562.00
2024-04-03T10:21:59.476Z,558.00
2024-04-03T10:22:59.553Z,556.00
2024-04-03T10:23:59.569Z,557.00
2024-04-03T10:25:00.574Z,556.00
2024-04-03T10:25:59.535Z,555.00
2024-04-03T10:26:59.537Z,555.00
2024-04-03T10:27:59.550Z,554.00
2024-04-03T10:28:59.549Z,553.00
2024-04-03T10:29:59.553Z,549.00
2024-04-03T10:30:59.570Z,547.00
2024-04-03T10:31:59.566Z,545.00
2024-04-03T10:32:59.582Z,544.00
2024-04-03T10:33:59.568Z,543.00
2024-04-03T10:34:59.571Z,544.00
2024-04-03T10:35:59.641Z,545.00
2024-04-03T10:36:59.752Z,546.00
2024-04-03T10:37:59.835Z,548.00
2024-04-03T10:38:59.955Z,547.00
2024-04-03T10:40:00.052Z,548.00
2024-04-03T10:41:00.145Z,544.00
2024-04-03T10:42:00.243Z,540.00
2024-04-03T10:43:00.345Z,541.00
2024-04-03T10:44:00.419Z,617.00
2024-04-03T10:45:00.521Z,648.00
2024-04-03T10:46:00.603Z,646.00
2024-04-03T10:47:00.695Z,654.00
2024-04-03T10:48:00.749Z,730.00
2024-04-03T10:49:00.850Z,749.00
2024-04-03T10:50:00.922Z,765.00
2024-04-03T10:51:01.004Z,840.00
2024-04-03T10:52:01.098Z,863.00
2024-04-03T10:53:01.152Z,937.00
2024-04-03T10:54:01.252Z,975.00
2024-04-03T10:55:01.327Z,994.00
2024-04-03T10:56:01.381Z,1008.00
2024-04-03T10:57:01.453Z,1052.00
2024-04-03T10:58:01.529Z,1073.00
2024-04-03T10:59:01.625Z,1110.00
2024-04-03T11:00:01.701Z,1153.00
2024-04-03T11:01:01.797Z,1182.00
2024-04-03T11:02:01.899Z,1201.00
2024-04-03T11:03:02.000Z,1221.00
2024-04-03T11:04:02.078Z,1274.00
2024-04-03T11:05:02.187Z,1305.00
2024-04-03T11:06:02.268Z,1325.00
2024-04-03T11:07:02.346Z,1342.00
2024-04-03T11:08:02.461Z,1357.00
2024-04-03T11:09:07.570Z,1391.00
2024-04-03T11:10:02.536Z,1454.00
2024-04-03T11:11:02.548Z,1484.00
2024-04-03T11:12:02.562Z,1502.00
2024-04-03T11:13:02.554Z,1519.00
2024-04-03T11:14:02.556Z,1545.00
2024-04-03T11:15:02.545Z,1612.00
2024-04-03T11:16:02.563Z,1623.00
2024-04-03T11:17:02.623Z,1637.00
2024-04-03T11:18:02.791Z,1657.00
2024-04-03T11:19:02.873Z,1688.00
2024-04-03T11:20:02.954Z,1717.00
2024-04-03T11:21:02.984Z,1736.00
2024-04-03T11:22:03.075Z,1764.00
2024-04-03T11:23:03.156Z,1799.00
2024-04-03T11:24:03.271Z,1826.00
2024-04-03T11:25:03.369Z,1888.00
2024-04-03T11:26:03.487Z,1908.00
2024-04-03T11:27:03.530Z,1924.00
2024-04-03T11:28:03.629Z,1948.00
2024-04-03T11:29:03.714Z,1966.00
2024-04-03T11:30:03.820Z,1989.00
2024-04-03T11:31:03.882Z,2020.00
2024-04-03T11:32:03.979Z,2067.00
2024-04-03T11:33:04.123Z,2094.00
2024-04-03T11:34:04.173Z,2133.00
2024-04-03T11:35:04.306Z,2147.00
2024-04-03T11:36:04.347Z,2232.00
2024-04-03T11:37:04.440Z,2255.00
2024-04-03T11:38:04.548Z,2295.00
2024-04-03T11:39:04.669Z,2325.00
2024-04-03T11:40:04.800Z,2341.00
2024-04-03T11:41:04.862Z,2350.00
2024-04-03T11:42:05.018Z,2349.00
2024-04-03T11:43:05.044Z,2350.00
2024-04-03T11:44:05.173Z,2344.00
2024-04-03T11:45:05.264Z,2340.00
2024-04-03T11:46:13.882Z,2341.00
2024-04-03T11:47:06.366Z,2341.00
2024-04-03T11:48:05.378Z,2343.00
2024-04-03T11:49:05.386Z,2343.00
2024-04-03T11:50:05.395Z,2342.00
2024-04-03T11:51:05.384Z,2346.00
2024-04-03T11:52:05.374Z,2342.00
2024-04-03T11:53:05.396Z,2344.00
2024-04-03T11:54:05.392Z,2342.00
2024-04-03T11:55:05.479Z,2343.00
2024-04-03T11:56:05.578Z,2340.00
2024-04-03T11:57:05.616Z,2335.00
2024-04-03T11:58:05.711Z,2333.00
2024-04-03T11:59:05.787Z,2331.00
2024-04-03T12:00:05.894Z,2331.00
2024-04-03T12:01:05.961Z,2327.00
2024-04-03T12:02:06.040Z,2325.00
2024-04-03T12:03:06.149Z,2324.00
2024-04-03T12:04:06.222Z,2320.00
2024-04-03T12:05:06.289Z,2319.00
2024-04-03T12:06:06.351Z,2317.00
2024-04-03T12:07:06.380Z,2316.00
2024-04-03T12:08:06.439Z,2315.00
2024-04-03T12:09:06.489Z,2313.00
2024-04-03T12:10:06.578Z,2315.00
2024-04-03T12:11:06.633Z,2315.00
2024-04-03T12:12:06.676Z,2313.00
2024-04-03T12:13:06.758Z,2309.00
2024-04-03T12:14:06.825Z,2309.00
2024-04-03T12:15:06.909Z,2312.00
2024-04-03T12:16:07.027Z,2313.00
2024-04-03T12:17:07.064Z,2321.00
2024-04-03T12:18:07.119Z,2317.00
2024-04-03T12:19:07.164Z,2313.00
2024-04-03T12:20:07.212Z,2313.00
2024-04-03T12:21:07.293Z,2306.00
2024-04-03T12:22:07.374Z,2303.00